Time;durP1;ratioP1;P1;durP2;ratioP2;P2;SDS_P1;SDS_P2;PMS_P1;PMS_P2;Temp;Humidity;BMP_temperature;BMP_pressure;BME280_temperature;BME280_humidity;BME280_pressure;Samples;Min_cycle;Max_cycle;Signal;HPM_P1;HPM_P2
2022/06/30 00:00:45;;;;;;;2.55;2.35;;;20.90;99.90;;;;;;5054000;28;20403;-81
2022/06/30 00:03:13;;;;;;;2.95;2.65;;;20.90;99.90;;;;;;5054053;28;20321;-81
2022/06/30 00:05:42;;;;;;;2.35;2.15;;;20.90;99.90;;;;;;5054057;28;20214;-81
2022/06/30 00:08:10;;;;;;;3.45;3.10;;;20.90;99.90;;;;;;5054006;28;20284;-81
2022/06/30 00:10:38;;;;;;;2.83;2.63;;;20.90;99.90;;;;;;5053889;28;20218;-81
2022/06/30 00:13:07;;;;;;;3.20;2.90;;;20.90;99.90;;;;;;5053016;28;20232;-81
2022/06/30 00:15:37;;;;;;;3.30;3.00;;;20.90;99.90;;;;;;5054148;28;20268;-81
2022/06/30 00:18:07;;;;;;;3.65;2.90;;;20.90;99.90;;;;;;5053776;28;20202;-81
2022/06/30 00:20:35;;;;;;;4.43;2.65;;;20.90;99.90;;;;;;5053958;28;20202;-81
2022/06/30 00:23:03;;;;;;;3.75;2.85;;;20.90;99.90;;;;;;5053937;28;20246;-81
2022/06/30 00:25:32;;;;;;;4.53;2.95;;;20.90;99.90;;;;;;5053819;28;20205;-82
2022/06/30 00:28:00;;;;;;;2.50;2.30;;;20.90;99.90;;;;;;5053572;28;20197;-82
2022/06/30 00:30:29;;;;;;;3.20;2.90;;;20.80;99.90;;;;;;5052921;28;20264;-82
2022/06/30 00:32:57;;;;;;;2.75;2.55;;;20.90;99.90;;;;;;5053563;28;20222;-82
2022/06/30 00:35:27;;;;;;;3.70;3.40;;;20.90;99.90;;;;;;5053532;28;20228;-82
2022/06/30 00:37:56;;;;;;;3.58;3.25;;;20.90;99.90;;;;;;5053571;28;20288;-82
2022/06/30 00:40:24;;;;;;;3.30;2.95;;;20.90;99.90;;;;;;5052900;28;20221;-81
2022/06/30 00:42:52;;;;;;;2.90;2.70;;;20.90;99.90;;;;;;5053279;28;20271;-81
2022/06/30 00:45:21;;;;;;;3.20;2.92;;;20.90;99.90;;;;;;5053278;28;20197;-81
2022/06/30 00:47:49;;;;;;;2.95;2.70;;;20.90;99.90;;;;;;5053400;28;20301;-81
2022/06/30 00:50:17;;;;;;;3.03;2.72;;;21.00;99.90;;;;;;5053320;28;20305;-81
2022/06/30 00:52:50;;;;;;;3.10;2.83;;;21.00;99.90;;;;;;5053286;28;20252;-81
2022/06/30 00:55:19;;;;;;;2.72;2.53;;;21.00;99.90;;;;;;5053259;28;20292;-81
2022/06/30 00:57:49;;;;;;;3.72;3.35;;;21.00;99.90;;;;;;5053199;28;20293;-81
2022/06/30 01:00:18;;;;;;;3.30;3.00;;;21.10;99.90;;;;;;5053178;28;20280;-81
2022/06/30 01:02:46;;;;;;;3.05;2.83;;;21.10;99.90;;;;;;5052733;28;20233;-81
2022/06/30 01:05:15;;;;;;;3.53;3.17;;;21.10;99.90;;;;;;5053238;28;20202;-81
2022/06/30 01:07:44;;;;;;;3.53;3.22;;;21.10;99.90;;;;;;5053209;28;20269;-81
2022/06/30 01:13:00;;;;;;;3.25;2.80;;;21.10;99.90;;;;;;5052804;28;20269;-82
2022/06/30 01:15:28;;;;;;;3.97;3.67;;;21.00;99.90;;;;;;5052749;28;20205;-81
2022/06/30 01:17:56;;;;;;;3.55;3.22;;;21.00;99.90;;;;;;5052733;28;20272;-81
2022/06/30 01:20:29;;;;;;;3.08;2.83;;;21.10;99.90;;;;;;5053167;28;20280;-81
2022/06/30 01:23:00;;;;;;;3.28;2.97;;;21.10;99.90;;;;;;5052407;28;20232;-81
2022/06/30 01:25:28;;;;;;;3.58;3.25;;;21.10;99.90;;;;;;5052790;28;20290;-81
2022/06/30 01:27:57;;;;;;;3.70;3.20;;;21.10;99.90;;;;;;5052841;28;20201;-81
2022/06/30 01:30:25;;;;;;;3.53;3.22;;;21.10;99.90;;;;;;5052255;28;20197;-82
2022/06/30 01:32:53;;;;;;;4.38;3.22;;;21.10;99.90;;;;;;5052904;28;20312;-82
2022/06/30 01:35:22;;;;;;;3.42;3.13;;;21.10;99.90;;;;;;5052774;28;20209;-81
2022/06/30 01:37:52;;;;;;;3.45;3.15;;;21.10;99.90;;;;;;5052682;28;20300;-81
2022/06/30 01:40:24;;;;;;;3.40;2.90;;;21.10;99.90;;;;;;5052591;28;20217;-82
2022/06/30 01:42:53;;;;;;;3.65;3.35;;;21.10;99.90;;;;;;5052743;28;20314;-81
2022/06/30 01:45:22;;;;;;;3.20;2.90;;;21.10;99.90;;;;;;5053131;28;20233;-81
2022/06/30 01:47:51;;;;;;;3.45;3.15;;;21.10;99.90;;;;;;5053128;28;20213;-81
2022/06/30 01:50:22;;;;;;;3.25;2.95;;;21.10;99.90;;;;;;5052857;28;20301;-81
2022/06/30 01:52:50;;;;;;;3.75;3.30;;;21.10;99.90;;;;;;5052279;28;20250;-81
2022/06/30 01:55:18;;;;;;;2.50;2.40;;;21.10;99.90;;;;;;5052520;28;20210;-81
2022/06/30 01:57:48;;;;;;;3.50;3.20;;;21.00;99.90;;;;;;5052465;28;20202;-81
2022/06/30 02:00:19;;;;;;;3.22;2.92;;;21.00;99.90;;;;;;5052756;28;20289;-81
2022/06/30 02:02:48;;;;;;;3.30;3.00;;;20.90;99.90;;;;;;5052018;28;20231;-81
2022/06/30 02:05:17;;;;;;;3.13;2.90;;;21.00;99.90;;;;;;5052372;28;20213;-81
2022/06/30 02:07:45;;;;;;;3.63;3.33;;;20.90;99.90;;;;;;5052360;28;20292;-81
2022/06/30 02:10:16;;;;;;;11.23;2.90;;;20.90;99.90;;;;;;5052002;28;20233;-81
2022/06/30 02:12:47;;;;;;;6.13;3.47;;;20.90;99.90;;;;;;5052095;28;20234;-81
2022/06/30 02:15:21;;;;;;;3.78;3.20;;;20.90;99.90;;;;;;5052189;28;20221;-81
2022/06/30 02:17:51;;;;;;;3.17;2.97;;;20.90;99.90;;;;;;5052140;28;20281;-80
2022/06/30 02:20:23;;;;;;;3.13;2.83;;;20.90;99.90;;;;;;5052221;28;20266;-81
2022/06/30 02:22:54;;;;;;;3.10;2.85;;;20.90;99.90;;;;;;5052461;28;20221;-81
2022/06/30 02:25:24;;;;;;;3.40;3.20;;;20.90;99.90;;;;;;5052467;28;20289;-81
2022/06/30 02:27:52;;;;;;;3.95;3.55;;;20.90;99.90;;;;;;5052399;28;20221;-81
2022/06/30 02:30:22;;;;;;;3.15;2.88;;;20.90;99.90;;;;;;5052150;28;20230;-81
2022/06/30 02:32:51;;;;;;;4.30;3.70;;;20.90;99.90;;;;;;5051967;28;20316;-81
2022/06/30 02:35:20;;;;;;;3.65;3.35;;;20.90;99.90;;;;;;5053795;28;20216;-81
2022/06/30 02:37:49;;;;;;;6.70;3.40;;;20.90;99.90;;;;;;5056045;28;20296;-81
2022/06/30 02:40:17;;;;;;;3.78;3.42;;;20.90;99.90;;;;;;5055636;28;20302;-81
2022/06/30 02:42:45;;;;;;;3.40;3.10;;;20.80;99.90;;;;;;5055730;28;20225;-80
2022/06/30 02:45:14;;;;;;;3.08;2.88;;;20.80;99.90;;;;;;5055864;28;20245;-81
2022/06/30 02:47:45;;;;;;;4.20;3.47;;;20.70;99.90;;;;;;5055461;28;20209;-81
2022/06/30 02:50:14;;;;;;;3.60;3.30;;;20.70;99.90;;;;;;5055641;28;20260;-81
2022/06/30 02:52:43;;;;;;;2.75;2.55;;;20.60;99.90;;;;;;5055186;28;20321;-81
2022/06/30 02:55:11;;;;;;;3.50;3.20;;;20.50;99.90;;;;;;5055573;28;20208;-81
2022/06/30 02:57:40;;;;;;;3.38;2.83;;;20.50;99.90;;;;;;5055237;28;20300;-81
2022/06/30 03:00:10;;;;;;;12.15;3.33;;;20.60;99.90;;;;;;5055124;28;20240;-81
2022/06/30 03:02:39;;;;;;;2.83;2.63;;;20.60;99.90;;;;;;5054782;28;20240;-81
2022/06/30 03:05:10;;;;;;;3.35;2.83;;;20.60;99.90;;;;;;5055158;28;20261;-81
2022/06/30 03:07:38;;;;;;;3.40;3.10;;;20.60;99.90;;;;;;5055422;28;20209;-81
2022/06/30 03:10:07;;;;;;;3.60;3.30;;;20.70;99.90;;;;;;5054948;28;20285;-81
2022/06/30 03:12:37;;;;;;;3.40;3.15;;;20.70;99.90;;;;;;5054817;28;20221;-81
2022/06/30 03:15:06;;;;;;;4.07;3.55;;;20.80;99.90;;;;;;5054967;28;20294;-81
2022/06/30 03:17:34;;;;;;;4.05;3.05;;;20.80;99.90;;;;;;5054362;28;20226;-81
2022/06/30 03:20:03;;;;;;;3.58;3.17;;;20.90;99.90;;;;;;5055157;28;20216;-81
2022/06/30 03:22:33;;;;;;;3.40;3.10;;;20.90;99.90;;;;;;5055501;28;20222;-81
2022/06/30 03:25:01;;;;;;;2.88;2.67;;;20.90;99.90;;;;;;5055009;28;20233;-81
2022/06/30 03:27:29;;;;;;;3.28;2.88;;;21.00;99.90;;;;;;5055127;28;20205;-81
2022/06/30 03:29:58;;;;;;;3.58;3.28;;;21.00;99.90;;;;;;5054748;28;20255;-81
2022/06/30 03:32:26;;;;;;;3.22;3.03;;;21.00;99.90;;;;;;5054383;28;20221;-81
2022/06/30 03:34:54;;;;;;;5.07;3.63;;;21.00;99.90;;;;;;5054713;28;20226;-81
2022/06/30 03:37:29;;;;;;;4.05;3.60;;;21.00;99.90;;;;;;5054930;28;20201;-81
2022/06/30 03:39:59;;;;;;;3.00;2.80;;;21.00;99.90;;;;;;5054759;28;20206;-81
2022/06/30 03:42:28;;;;;;;3.90;3.60;;;21.10;99.90;;;;;;5054555;28;20291;-81
2022/06/30 03:44:56;;;;;;;3.35;2.85;;;21.10;99.90;;;;;;5054352;28;20228;-81
2022/06/30 03:47:25;;;;;;;4.65;3.33;;;21.10;99.90;;;;;;5054499;28;20331;-81
2022/06/30 03:49:53;;;;;;;2.80;2.60;;;21.10;99.90;;;;;;5054606;28;20296;-81
2022/06/30 03:52:21;;;;;;;3.38;3.15;;;21.20;99.90;;;;;;5054392;28;20305;-81
2022/06/30 03:54:50;;;;;;;6.05;3.95;;;21.10;99.90;;;;;;5054485;28;20288;-81
2022/06/30 03:57:20;;;;;;;3.63;3.33;;;21.20;99.90;;;;;;5054529;28;20229;-81
2022/06/30 03:59:48;;;;;;;3.58;3.33;;;21.20;99.90;;;;;;5054145;28;20293;-81
2022/06/30 04:02:16;;;;;;;3.60;3.30;;;21.20;99.90;;;;;;5054277;28;20310;-81
2022/06/30 04:04:44;;;;;;;3.92;3.50;;;21.20;99.90;;;;;;5054148;28;20234;-81
2022/06/30 04:07:12;;;;;;;2.92;2.72;;;21.20;99.90;;;;;;5054174;28;20206;-81
2022/06/30 04:09:41;;;;;;;2.80;2.60;;;21.20;99.90;;;;;;5054093;28;20223;-80
2022/06/30 04:12:11;;;;;;;3.95;3.58;;;21.30;99.90;;;;;;5054082;28;20230;-81
2022/06/30 04:14:41;;;;;;;3.17;2.85;;;21.40;99.90;;;;;;5054458;28;20235;-81
2022/06/30 04:17:10;;;;;;;3.22;2.97;;;21.50;99.90;;;;;;5053787;28;20289;-81
2022/06/30 04:19:39;;;;;;;3.38;2.90;;;21.60;99.90;;;;;;5053809;28;20209;-81
2022/06/30 04:22:07;;;;;;;3.00;2.80;;;21.90;99.90;;;;;;5053672;28;20313;-81
2022/06/30 04:24:36;;;;;;;3.53;3.22;;;22.10;99.90;;;;;;5053761;28;20261;-81
2022/06/30 04:27:05;;;;;;;3.70;3.40;;;22.30;99.90;;;;;;5053939;28;20293;-81
2022/06/30 04:29:33;;;;;;;3.42;3.17;;;22.40;99.90;;;;;;5053806;28;20213;-81
2022/06/30 04:34:48;;;;;;;4.75;4.35;;;22.50;99.90;;;;;;5053463;28;20288;-80
2022/06/30 04:37:16;;;;;;;2.78;2.58;;;22.50;99.90;;;;;;5053532;28;20285;-80
2022/06/30 04:39:45;;;;;;;2.80;2.60;;;22.50;99.90;;;;;;5053293;28;20213;-80
2022/06/30 04:42:12;;;;;;;3.13;2.85;;;22.50;99.90;;;;;;5053333;28;20221;-80
2022/06/30 04:44:41;;;;;;;3.30;3.00;;;22.50;99.90;;;;;;5053494;28;20257;-80
2022/06/30 04:47:11;;;;;;;5.45;3.88;;;22.50;99.90;;;;;;5053235;28;20279;-80
2022/06/30 04:49:39;;;;;;;3.88;3.58;;;22.40;99.90;;;;;;5053265;28;20229;-81
2022/06/30 04:52:08;;;;;;;4.15;3.50;;;22.50;99.90;;;;;;5053304;28;20281;-80
2022/06/30 04:54:36;;;;;;;3.45;3.15;;;22.50;99.90;;;;;;5053327;28;20210;-81
2022/06/30 04:57:05;;;;;;;3.65;3.35;;;22.40;99.90;;;;;;5053021;28;20233;-81
2022/06/30 04:59:33;;;;;;;11.75;3.67;;;22.50;99.90;;;;;;5052731;28;20277;-80
2022/06/30 05:02:02;;;;;;;4.03;3.72;;;22.50;99.90;;;;;;5052580;28;20209;-81
2022/06/30 05:04:32;;;;;;;4.15;3.75;;;22.60;99.90;;;;;;5052678;28;20225;-80
2022/06/30 05:07:00;;;;;;;3.35;3.03;;;22.60;99.90;;;;;;5053290;28;20263;-81
2022/06/30 05:09:28;;;;;;;3.55;3.25;;;22.60;99.90;;;;;;5052967;28;20280;-81
2022/06/30 05:11:56;;;;;;;3.22;2.92;;;22.60;99.90;;;;;;5052853;28;20198;-81
2022/06/30 05:14:25;;;;;;;3.30;3.03;;;22.70;99.90;;;;;;5052664;28;20310;-81
2022/06/30 05:16:53;;;;;;;3.78;3.03;;;22.70;99.90;;;;;;5052631;28;20240;-81
2022/06/30 05:19:21;;;;;;;3.70;3.08;;;22.80;99.90;;;;;;5053068;28;20292;-80
2022/06/30 05:21:51;;;;;;;3.13;2.60;;;22.80;99.90;;;;;;5052789;28;20291;-80
2022/06/30 05:27:06;;;;;;;3.33;2.58;;;22.80;99.90;;;;;;5052787;28;20243;-80
2022/06/30 05:29:34;;;;;;;3.03;2.83;;;22.90;99.90;;;;;;5052527;28;20229;-80
2022/06/30 05:32:02;;;;;;;2.70;2.50;;;23.00;99.90;;;;;;5052518;28;20283;-81
2022/06/30 05:34:31;;;;;;;2.90;2.60;;;23.10;99.90;;;;;;5052249;28;20225;-80
2022/06/30 05:37:00;;;;;;;8.73;2.97;;;23.20;99.90;;;;;;5052821;28;20293;-80
2022/06/30 05:39:29;;;;;;;4.18;3.72;;;23.20;99.90;;;;;;5052745;28;20206;-80
2022/06/30 05:41:57;;;;;;;3.50;3.20;;;23.30;99.90;;;;;;5052407;28;20273;-81
2022/06/30 05:44:25;;;;;;;4.07;3.58;;;23.30;99.90;;;;;;5053240;28;20236;-81
2022/06/30 05:46:54;;;;;;;2.55;2.38;;;23.50;99.90;;;;;;5052572;28;20296;-80
2022/06/30 05:49:23;;;;;;;3.63;3.33;;;23.60;99.90;;;;;;5053071;28;20205;-81
2022/06/30 05:51:51;;;;;;;2.90;2.70;;;23.70;99.90;;;;;;5052715;28;20210;-81
2022/06/30 05:54:21;;;;;;;3.58;3.28;;;23.80;99.90;;;;;;5052379;28;20222;-81
2022/06/30 05:56:49;;;;;;;3.05;2.80;;;23.90;99.90;;;;;;5052653;28;20197;-80
2022/06/30 05:59:18;;;;;;;3.97;3.67;;;24.00;99.90;;;;;;5052224;28;20289;-81
2022/06/30 06:01:46;;;;;;;4.18;3.08;;;24.10;99.90;;;;;;5051901;28;20224;-80
2022/06/30 06:04:14;;;;;;;5.45;2.55;;;24.10;99.90;;;;;;5052871;28;20205;-81
2022/06/30 06:06:42;;;;;;;2.78;2.58;;;24.20;99.90;;;;;;5052656;28;20206;-81
2022/06/30 06:09:11;;;;;;;2.90;2.70;;;24.30;99.90;;;;;;5053290;28;20201;-80
2022/06/30 06:11:42;;;;;;;3.40;3.10;;;24.40;99.90;;;;;;5055894;28;20210;-81
2022/06/30 06:14:10;;;;;;;4.45;2.75;;;24.40;99.90;;;;;;5056368;28;20245;-81
2022/06/30 06:16:38;;;;;;;3.10;2.80;;;24.50;99.90;;;;;;5055880;28;20221;-80
2022/06/30 06:19:07;;;;;;;4.30;3.25;;;24.60;99.90;;;;;;5056420;28;20201;-81
2022/06/30 06:21:36;;;;;;;3.67;2.67;;;24.70;99.90;;;;;;5056024;28;20205;-81
2022/06/30 06:24:04;;;;;;;2.85;2.65;;;24.90;99.90;;;;;;5055902;28;20256;-81
2022/06/30 06:26:33;;;;;;;3.38;3.08;;;25.00;99.90;;;;;;5056195;28;20213;-81
2022/06/30 06:29:09;;;;;;;2.97;2.78;;;25.10;99.90;;;;;;5055770;28;20221;-81
2022/06/30 06:31:39;;;;;;;2.72;2.53;;;25.20;99.90;;;;;;5056181;28;20208;-81
2022/06/30 06:34:08;;;;;;;3.30;3.00;;;25.30;99.90;;;;;;5055781;28;20236;-81
2022/06/30 06:36:37;;;;;;;3.30;3.00;;;25.30;99.90;;;;;;5055750;28;20206;-81
2022/06/30 06:39:05;;;;;;;2.47;2.28;;;25.40;99.90;;;;;;5055686;28;20212;-81
2022/06/30 06:41:34;;;;;;;5.38;3.75;;;25.40;99.90;;;;;;5055430;28;20262;-81
2022/06/30 06:44:04;;;;;;;2.58;2.38;;;25.30;99.90;;;;;;5055333;28;20238;-81
2022/06/30 06:46:33;;;;;;;2.70;2.50;;;25.10;99.90;;;;;;5055864;28;20288;-81
2022/06/30 06:49:04;;;;;;;3.05;2.78;;;25.10;99.90;;;;;;5055439;28;20214;-81
2022/06/30 06:51:32;;;;;;;2.55;2.35;;;24.90;99.90;;;;;;5055244;28;20235;-81
2022/06/30 06:54:01;;;;;;;2.78;2.58;;;24.80;99.90;;;;;;5055574;28;20225;-81
2022/06/30 06:56:30;;;;;;;3.13;2.67;;;24.80;99.90;;;;;;5055621;28;20286;-81
2022/06/30 06:59:00;;;;;;;2.72;2.53;;;24.80;99.90;;;;;;5055549;28;20213;-81
2022/06/30 07:01:31;;;;;;;3.13;2.88;;;24.80;99.90;;;;;;5055189;28;20210;-81
2022/06/30 07:03:59;;;;;;;5.07;3.20;;;24.90;99.90;;;;;;5055405;28;20226;-81
2022/06/30 07:06:27;;;;;;;3.30;2.83;;;24.80;99.90;;;;;;5055062;28;20297;-80
2022/06/30 07:08:56;;;;;;;2.30;2.10;;;24.60;99.90;;;;;;5055316;28;20212;-81
2022/06/30 07:11:24;;;;;;;3.42;2.67;;;24.60;99.90;;;;;;5055374;28;20210;-81
2022/06/30 07:13:52;;;;;;;2.58;2.38;;;24.70;99.90;;;;;;5055232;28;20249;-81
2022/06/30 07:16:21;;;;;;;2.38;2.17;;;24.90;99.90;;;;;;5054679;28;20210;-81
2022/06/30 07:18:51;;;;;;;2.35;2.25;;;25.10;99.90;;;;;;5055113;28;20210;-81
2022/06/30 07:21:20;;;;;;;2.80;2.50;;;25.60;99.90;;;;;;5054488;28;20229;-81
2022/06/30 07:23:48;;;;;;;2.70;2.50;;;26.50;99.90;;;;;;5055048;28;20310;-80
2022/06/30 07:26:17;;;;;;;4.00;2.45;;;27.50;99.90;;;;;;5055130;28;20236;-81
2022/06/30 07:28:45;;;;;;;2.65;2.45;;;28.40;99.90;;;;;;5055213;28;20206;-80
2022/06/30 07:31:23;;;;;;;2.67;2.47;;;29.30;99.90;;;;;;5054873;28;20279;-80
2022/06/30 07:33:53;;;;;;;3.00;2.70;;;29.90;99.90;;;;;;5054949;28;20229;-80
2022/06/30 07:36:22;;;;;;;2.20;2.10;;;30.30;99.90;;;;;;5054815;28;20214;-80
2022/06/30 07:38:50;;;;;;;2.08;1.98;;;31.10;99.90;;;;;;5054401;28;20201;-80
2022/06/30 07:41:19;;;;;;;2.83;2.63;;;31.90;99.90;;;;;;5054642;28;20205;-81
2022/06/30 07:43:48;;;;;;;3.05;2.30;;;33.20;99.90;;;;;;5054732;28;20252;-80
2022/06/30 07:46:17;;;;;;;2.45;2.15;;;33.80;99.90;;;;;;5054475;28;20292;-81
2022/06/30 07:48:46;;;;;;;8.00;2.25;;;34.50;99.90;;;;;;5054458;28;20209;-81
2022/06/30 07:51:17;;;;;;;2.28;2.10;;;34.60;99.50;;;;;;5053945;28;20201;-81
2022/06/30 07:53:45;;;;;;;2.10;1.90;;;35.20;97.60;;;;;;5054531;28;20312;-81
2022/06/30 07:56:14;;;;;;;1.92;1.83;;;36.30;96.10;;;;;;5054710;28;20268;-81
2022/06/30 07:58:43;;;;;;;2.20;2.00;;;37.00;93.70;;;;;;5054305;28;20209;-81
2022/06/30 08:01:11;;;;;;;2.55;2.30;;;37.10;92.60;;;;;;5054133;28;20211;-81
2022/06/30 08:03:42;;;;;;;2.22;1.92;;;37.70;91.30;;;;;;5053951;28;20236;-81
2022/06/30 08:06:12;;;;;;;2.28;2.13;;;38.00;90.10;;;;;;5054318;28;20205;-81
2022/06/30 08:08:42;;;;;;;2.97;2.05;;;38.30;87.30;;;;;;5054119;28;20304;-80
2022/06/30 08:11:11;;;;;;;2.30;2.10;;;38.50;86.40;;;;;;5054101;28;20204;-80
2022/06/30 08:13:40;;;;;;;4.28;2.47;;;38.00;83.00;;;;;;5053866;28;20308;-80
2022/06/30 08:16:09;;;;;;;2.33;2.15;;;38.00;83.20;;;;;;5053460;28;20308;-81
2022/06/30 08:18:37;;;;;;;2.22;2.03;;;38.40;82.30;;;;;;5054004;28;20228;-81
2022/06/30 08:21:06;;;;;;;2.65;2.13;;;38.30;82.40;;;;;;5053683;28;20229;-81
2022/06/30 08:23:35;;;;;;;3.65;2.58;;;38.60;80.80;;;;;;5053946;28;20252;-81
2022/06/30 08:26:04;;;;;;;2.50;2.30;;;39.10;79.20;;;;;;5054266;28;20201;-81
2022/06/30 08:28:33;;;;;;;3.05;1.80;;;38.30;78.90;;;;;;5053630;28;20292;-81
2022/06/30 08:31:02;;;;;;;2.20;2.10;;;38.90;79.10;;;;;;5053729;28;20236;-81
2022/06/30 08:33:30;;;;;;;2.08;1.90;;;39.00;78.30;;;;;;5052821;28;20285;-81
2022/06/30 08:35:59;;;;;;;2.03;1.90;;;39.20;79.40;;;;;;5053243;28;20308;-81
2022/06/30 08:38:29;;;;;;;2.03;1.92;;;39.20;74.90;;;;;;5053758;28;20215;-81
2022/06/30 08:43:46;;;;;;;2.42;2.10;;;39.40;74.20;;;;;;5053288;28;20289;-81
2022/06/30 08:46:16;;;;;;;2.22;2.03;;;39.30;74.70;;;;;;5053555;28;20276;-82
2022/06/30 08:48:44;;;;;;;3.63;2.15;;;39.70;73.50;;;;;;5053342;28;20296;-81
2022/06/30 08:51:16;;;;;;;2.03;1.90;;;40.30;72.80;;;;;;5052845;28;20204;-81
2022/06/30 08:53:48;;;;;;;1.77;1.67;;;40.80;70.70;;;;;;5053310;28;20222;-81
2022/06/30 08:56:17;;;;;;;2.03;1.92;;;41.10;70.10;;;;;;5053041;28;20282;-81
2022/06/30 08:58:48;;;;;;;4.43;2.17;;;41.20;68.10;;;;;;5053018;28;20232;-81
2022/06/30 09:01:17;;;;;;;2.67;2.28;;;40.70;68.20;;;;;;5053062;28;20220;-81
2022/06/30 09:03:46;;;;;;;1.90;1.80;;;41.30;68.70;;;;;;5052870;28;20253;-81
2022/06/30 09:06:14;;;;;;;1.80;1.70;;;40.80;66.60;;;;;;5053182;28;20284;-81
2022/06/30 09:09:03;;;;;;;2.75;2.25;;;40.80;66.60;;;;;;5053326;28;20277;-81
2022/06/30 09:11:53;;;;;;;1.95;1.80;;;41.00;67.30;;;;;;5052673;28;20236;-81
2022/06/30 09:14:39;;;;;;;2.00;1.90;;;41.10;65.40;;;;;;5052928;28;20201;-81
2022/06/30 09:17:10;;;;;;;8.90;2.00;;;40.20;63.90;;;;;;5052681;28;20209;-81
2022/06/30 09:19:55;;;;;;;2.22;2.03;;;39.80;66.40;;;;;;5053067;28;20205;-81
2022/06/30 09:22:24;;;;;;;1.85;1.75;;;39.50;65.40;;;;;;5052951;28;20248;-82
2022/06/30 09:24:56;;;;;;;2.55;2.35;;;39.50;66.90;;;;;;5053199;28;20259;-81
2022/06/30 09:27:27;;;;;;;5.15;2.55;;;39.70;65.60;;;;;;5052848;28;20248;-81
2022/06/30 09:30:00;;;;;;;2.35;2.22;;;39.00;67.10;;;;;;5052871;28;20205;-81
2022/06/30 09:32:51;;;;;;;2.95;2.33;;;39.00;66.20;;;;;;5052601;28;20229;-81
2022/06/30 09:35:21;;;;;;;2.28;2.10;;;38.90;68.40;;;;;;5052436;28;20216;-81
2022/06/30 09:38:03;;;;;;;2.45;2.13;;;38.60;67.40;;;;;;5052663;28;20201;-81
2022/06/30 09:40:33;;;;;;;2.47;2.28;;;38.50;66.40;;;;;;5052659;28;20205;-81
2022/06/30 09:43:02;;;;;;;4.28;2.20;;;38.70;67.20;;;;;;5052470;28;20221;-82
2022/06/30 09:45:37;;;;;;;2.35;2.20;;;38.80;66.70;;;;;;5058530;28;20298;-82
2022/06/30 09:48:07;;;;;;;2.15;1.98;;;38.50;68.60;;;;;;5059168;28;20235;-82
2022/06/30 09:50:36;;;;;;;2.88;2.45;;;38.90;67.00;;;;;;5058846;28;20231;-81
2022/06/30 09:53:13;;;;;;;2.85;2.20;;;39.30;68.20;;;;;;5059188;28;20225;-82
2022/06/30 09:55:44;;;;;;;2.42;2.22;;;39.70;66.30;;;;;;5059072;28;20283;-81
2022/06/30 09:58:14;;;;;;;2.60;2.40;;;39.80;66.70;;;;;;5059078;28;20197;-81
2022/06/30 10:00:49;;;;;;;2.70;2.50;;;40.00;66.00;;;;;;5058753;28;20292;-82
2022/06/30 10:03:18;;;;;;;2.17;2.08;;;40.40;63.80;;;;;;5058854;28;20289;-81
2022/06/30 10:05:49;;;;;;;1.95;1.85;;;40.20;66.10;;;;;;5058806;28;20224;-82
2022/06/30 10:08:19;;;;;;;3.00;2.50;;;40.30;65.10;;;;;;5058756;28;20227;-82
2022/06/30 10:10:47;;;;;;;2.78;2.58;;;39.50;63.90;;;;;;5059167;28;20300;-82
2022/06/30 10:13:17;;;;;;;3.55;2.70;;;39.40;64.70;;;;;;5059142;28;20248;-82
2022/06/30 10:15:53;;;;;;;2.17;2.08;;;39.50;64.70;;;;;;5058896;28;20217;-82
2022/06/30 10:18:25;;;;;;;2.50;2.38;;;39.80;65.60;;;;;;5058976;28;20208;-82
2022/06/30 10:20:53;;;;;;;2.15;1.98;;;40.00;65.90;;;;;;5059272;28;20209;-82
2022/06/30 10:23:23;;;;;;;3.13;2.78;;;40.50;63.10;;;;;;5058898;28;20233;-82
2022/06/30 10:25:54;;;;;;;2.65;1.90;;;40.90;64.30;;;;;;5059220;28;20212;-82
2022/06/30 10:28:24;;;;;;;2.40;2.20;;;40.90;61.60;;;;;;5059235;28;20205;-82
2022/06/30 10:31:00;;;;;;;2.65;2.42;;;40.30;61.00;;;;;;5058666;28;20233;-82
2022/06/30 10:33:38;;;;;;;2.58;2.38;;;39.40;61.60;;;;;;5058911;28;20232;-82
2022/06/30 10:36:13;;;;;;;3.45;2.78;;;38.90;63.00;;;;;;5058650;28;20221;-82
2022/06/30 10:38:51;;;;;;;2.70;2.50;;;38.30;64.00;;;;;;5058846;28;20478;-82
2022/06/30 10:41:24;;;;;;;2.25;2.13;;;38.40;66.10;;;;;;5058733;28;20296;-82
2022/06/30 10:44:19;;;;;;;2.60;2.40;;;38.90;65.60;;;;;;5058989;28;20235;-83
2022/06/30 10:47:11;;;;;;;2.90;2.58;;;39.30;66.40;;;;;;5047642;28;20247;-83
2022/06/30 10:49:53;;;;;;;2.75;2.55;;;39.50;64.70;;;;;;5048818;28;20216;-83
2022/06/30 10:52:24;;;;;;;3.10;2.40;;;40.00;64.30;;;;;;5046543;28;20249;-82
2022/06/30 10:55:01;;;;;;;3.17;2.88;;;40.00;63.40;;;;;;5048119;28;20282;-87
2022/06/30 10:58:01;;;;;;;4.15;2.85;;;39.90;62.50;;;;;;5043650;28;20245;-83
2022/06/30 11:00:51;;;;;;;2.25;2.10;;;39.80;64.20;;;;;;5045197;28;20193;-84
2022/06/30 11:04:02;;;;;;;14.75;3.40;;;39.90;64.00;;;;;;5044054;28;20275;-84
2022/06/30 11:06:57;;;;;;;5.72;2.55;;;39.90;64.00;;;;;;5040983;28;20236;-84
2022/06/30 11:10:07;;;;;;;2.30;2.20;;;39.90;63.70;;;;;;5036145;28;20202;-84
2022/06/30 11:12:57;;;;;;;2.60;2.40;;;40.20;62.70;;;;;;5035900;28;20226;-84
2022/06/30 11:16:05;;;;;;;4.85;3.05;;;39.70;63.10;;;;;;5030335;28;20209;-84
2022/06/30 11:18:35;;;;;;;3.03;2.75;;;39.60;64.20;;;;;;5035481;28;20210;-84
2022/06/30 11:21:04;;;;;;;2.75;2.55;;;39.50;64.00;;;;;;5035195;28;20267;-84
2022/06/30 11:23:40;;;;;;;3.35;3.05;;;39.50;63.60;;;;;;5035195;28;20304;-84
2022/06/30 11:29:04;;;;;;;2.70;2.50;;;39.90;63.00;;;;;;5036173;28;20206;-84
2022/06/30 11:31:41;;;;;;;5.38;3.10;;;40.20;63.40;;;;;;5035979;28;20208;-84
2022/06/30 11:34:16;;;;;;;2.65;2.45;;;40.20;62.10;;;;;;5035933;28;20202;-84
2022/06/30 11:36:46;;;;;;;2.88;2.67;;;40.20;62.10;;;;;;5035289;28;20218;-85
2022/06/30 11:39:18;;;;;;;3.63;2.92;;;40.00;62.50;;;;;;5035257;28;20202;-85
2022/06/30 11:41:58;;;;;;;3.25;2.90;;;39.80;63.70;;;;;;5034921;28;20205;-85
2022/06/30 11:44:32;;;;;;;4.03;2.50;;;39.30;64.60;;;;;;5035578;28;20226;-85
2022/06/30 11:47:05;;;;;;;3.00;2.70;;;39.20;63.80;;;;;;5034413;28;20220;-85
2022/06/30 11:49:43;;;;;;;2.60;2.40;;;39.30;64.20;;;;;;5035484;28;20213;-85
2022/06/30 11:52:15;;;;;;;2.78;2.38;;;39.50;63.30;;;;;;5034873;28;20304;-85
2022/06/30 11:54:49;;;;;;;3.00;2.80;;;39.40;64.70;;;;;;5034566;28;20224;-85
2022/06/30 11:57:23;;;;;;;3.00;2.70;;;38.70;64.40;;;;;;5034787;28;20325;-85
2022/06/30 12:00:07;;;;;;;3.08;2.75;;;38.90;65.60;;;;;;5035358;28;20232;-85
2022/06/30 12:02:40;;;;;;;3.67;3.38;;;39.10;64.60;;;;;;5034585;28;20299;-85
2022/06/30 12:05:14;;;;;;;5.55;2.95;;;39.10;64.30;;;;;;5035050;28;20205;-85
2022/06/30 12:07:44;;;;;;;3.05;2.80;;;39.00;65.20;;;;;;5034400;28;20205;-85
2022/06/30 12:10:26;;;;;;;3.33;3.03;;;39.20;65.70;;;;;;5034823;28;20260;-85
2022/06/30 12:12:58;;;;;;;2.72;2.47;;;39.50;64.30;;;;;;5034582;28;20230;-85
2022/06/30 12:15:32;;;;;;;2.58;2.40;;;39.90;64.00;;;;;;5035061;28;20206;-85
2022/06/30 12:18:03;;;;;;;3.08;2.88;;;40.00;63.80;;;;;;5034420;28;20248;-85
2022/06/30 12:20:32;;;;;;;3.05;2.85;;;40.20;62.10;;;;;;5034336;28;20343;-85
2022/06/30 12:23:02;;;;;;;2.90;2.35;;;40.00;62.40;;;;;;5034421;28;20245;-85
2022/06/30 12:25:32;;;;;;;3.08;2.88;;;40.20;63.90;;;;;;5034800;28;20285;-85
2022/06/30 12:28:03;;;;;;;3.65;2.45;;;39.90;62.40;;;;;;5034358;28;20198;-85
2022/06/30 12:30:36;;;;;;;2.90;2.70;;;40.00;63.50;;;;;;5034172;28;20202;-85
2022/06/30 12:33:07;;;;;;;3.42;3.13;;;40.00;62.70;;;;;;5034083;28;20256;-85
2022/06/30 12:35:38;;;;;;;3.55;3.10;;;39.50;63.80;;;;;;5034279;28;20208;-85
2022/06/30 12:38:11;;;;;;;3.28;2.88;;;38.70;63.60;;;;;;5033801;28;20241;-85
2022/06/30 12:40:41;;;;;;;3.00;2.80;;;38.50;65.80;;;;;;5033764;28;20276;-85
2022/06/30 12:43:15;;;;;;;7.18;2.83;;;38.40;65.80;;;;;;5034294;28;20225;-85
2022/06/30 12:45:47;;;;;;;4.00;2.90;;;38.60;65.70;;;;;;5034358;28;20225;-85
2022/06/30 12:48:37;;;;;;;3.63;3.00;;;38.80;64.40;;;;;;5034140;28;20336;-85
2022/06/30 12:51:05;;;;;;;2.92;2.67;;;38.60;63.80;;;;;;5033664;28;20201;-85
2022/06/30 12:53:34;;;;;;;3.03;2.72;;;38.40;64.10;;;;;;5033675;28;20230;-85
2022/06/30 12:56:07;;;;;;;2.90;2.70;;;38.10;65.30;;;;;;5033655;28;20232;-85
2022/06/30 12:58:50;;;;;;;4.22;3.38;;;37.70;65.40;;;;;;5033165;28;20309;-85
2022/06/30 13:01:20;;;;;;;3.03;2.70;;;37.00;65.70;;;;;;5033582;28;20309;-84
2022/06/30 13:04:02;;;;;;;3.88;3.40;;;37.10;66.80;;;;;;5033468;28;20298;-85
2022/06/30 13:06:34;;;;;;;2.95;2.75;;;37.30;65.70;;;;;;5016287;28;20205;-85
2022/06/30 13:09:06;;;;;;;3.45;3.15;;;37.20;67.30;;;;;;5033318;28;20269;-85
2022/06/30 13:11:40;;;;;;;3.55;3.03;;;37.30;66.60;;;;;;5033302;28;20209;-85
2022/06/30 13:14:08;;;;;;;4.28;3.10;;;36.90;66.40;;;;;;5033587;28;20245;-85
2022/06/30 13:16:37;;;;;;;4.03;3.33;;;36.80;66.50;;;;;;5033168;28;20206;-85
2022/06/30 13:19:07;;;;;;;3.40;3.10;;;36.90;66.50;;;;;;5032523;28;20221;-85